Time;durP1;ratioP1;P1;durP2;ratioP2;P2;SDS_P1;SDS_P2;PMS_P1;PMS_P2;Temp;Humidity;BMP_temperature;BMP_pressure;BME280_temperature;BME280_humidity;BME280_pressure;Samples;Min_cycle;Max_cycle;Signal;HPM_P1;HPM_P2
2021/06/29 00:15:09;;;;;;;10.27;8.05;;;22.80;64.50;;;;;;4937429;29;20193;-83
2021/06/29 00:31:16;;;;;;;9.25;7.50;;;22.80;64.70;;;;;;4937965;29;20595;-83
2021/06/29 00:33:46;;;;;;;8.85;7.80;;;22.70;64.70;;;;;;4937322;29;20202;-83
2021/06/29 00:36:16;;;;;;;9.23;7.45;;;22.80;64.70;;;;;;4921028;29;20186;-83
2021/06/29 00:38:42;;;;;;;8.73;7.53;;;22.80;64.70;;;;;;4937257;29;20587;-83
2021/06/29 00:41:12;;;;;;;8.48;7.00;;;22.80;64.70;;;;;;4937826;29;20175;-83
2021/06/29 00:43:47;;;;;;;8.90;7.43;;;22.80;64.80;;;;;;4920917;29;20190;-83
2021/06/29 00:46:18;;;;;;;8.77;7.60;;;22.70;64.70;;;;;;4889294;29;20702;-83
2021/06/29 00:48:44;;;;;;;9.07;7.43;;;22.80;64.90;;;;;;4920153;29;20596;-83
2021/06/29 00:51:15;;;;;;;9.23;7.43;;;22.80;64.80;;;;;;4953479;29;20166;-83
2021/06/29 00:53:42;;;;;;;8.35;7.30;;;22.80;64.90;;;;;;4904592;29;20214;-83
2021/06/29 00:56:13;;;;;;;9.48;7.75;;;22.80;64.80;;;;;;4953101;29;20151;-83
2021/06/29 00:58:41;;;;;;;8.85;7.35;;;22.70;64.70;;;;;;4936824;29;20170;-83
2021/06/29 01:01:07;;;;;;;8.73;7.20;;;22.70;64.70;;;;;;4937896;29;20161;-83
2021/06/29 01:03:33;;;;;;;10.43;8.27;;;22.80;64.90;;;;;;4936733;29;20181;-83
2021/06/29 01:05:59;;;;;;;9.75;7.85;;;22.80;64.90;;;;;;4936497;29;20170;-83
2021/06/29 01:08:30;;;;;;;8.35;7.28;;;22.80;65.00;;;;;;4936585;29;20174;-83
2021/06/29 01:10:56;;;;;;;9.32;7.78;;;22.70;64.90;;;;;;4920290;29;20193;-83
2021/06/29 01:13:34;;;;;;;9.13;7.25;;;22.70;64.90;;;;;;4953444;29;20559;-83
2021/06/29 01:16:02;;;;;;;9.65;7.85;;;22.70;65.00;;;;;;4920456;29;20210;-83
2021/06/29 01:18:29;;;;;;;9.30;7.65;;;22.70;65.00;;;;;;4936804;29;20186;-83
2021/06/29 01:20:55;;;;;;;9.55;7.90;;;22.70;65.00;;;;;;4937139;29;20175;-83
2021/06/29 01:23:24;;;;;;;9.10;7.22;;;22.70;65.00;;;;;;4936869;29;20174;-83
2021/06/29 01:26:08;;;;;;;8.95;7.18;;;22.70;65.10;;;;;;4941310;29;20624;-83
2021/06/29 01:28:45;;;;;;;8.88;7.45;;;22.70;65.10;;;;;;4956723;29;20538;-83
2021/06/29 01:31:14;;;;;;;9.32;7.80;;;22.70;65.10;;;;;;4954680;29;20272;-83
2021/06/29 01:33:41;;;;;;;9.10;7.50;;;22.70;65.10;;;;;;4955549;29;20186;-83
2021/06/29 01:36:07;;;;;;;8.05;6.88;;;22.70;65.10;;;;;;4940757;29;20182;-83
2021/06/29 01:38:33;;;;;;;8.18;6.93;;;22.70;65.20;;;;;;4956411;29;20622;-83
2021/06/29 01:40:59;;;;;;;8.63;7.50;;;22.70;65.20;;;;;;4940734;29;20629;-83
2021/06/29 01:43:34;;;;;;;9.20;7.53;;;22.60;65.00;;;;;;4941367;29;20244;-83
2021/06/29 01:46:05;;;;;;;9.15;7.30;;;22.70;65.10;;;;;;4909658;29;20279;-83
2021/06/29 01:48:32;;;;;;;9.20;7.60;;;22.70;66.00;;;;;;4923416;29;20684;-83
2021/06/29 01:50:58;;;;;;;8.32;7.18;;;22.70;65.10;;;;;;4940256;29;20227;-83
2021/06/29 01:53:24;;;;;;;9.40;7.60;;;22.70;65.20;;;;;;4939688;29;20295;-83
2021/06/29 01:55:54;;;;;;;8.80;7.25;;;22.70;65.20;;;;;;4956034;29;20165;-83
2021/06/29 01:58:26;;;;;;;9.52;7.68;;;22.60;65.20;;;;;;4892021;29;20186;-83
2021/06/29 02:00:56;;;;;;;9.38;7.57;;;22.70;65.30;;;;;;4893040;29;20264;-83
2021/06/29 02:03:22;;;;;;;9.48;7.78;;;22.60;65.30;;;;;;4907833;29;20667;-83
2021/06/29 02:05:48;;;;;;;9.27;7.47;;;22.60;65.30;;;;;;4939595;29;20189;-83
2021/06/29 02:08:18;;;;;;;9.00;7.72;;;22.60;65.30;;;;;;4939764;29;20594;-83
2021/06/29 02:10:44;;;;;;;9.27;7.60;;;22.60;65.30;;;;;;4923171;29;20641;-83
2021/06/29 02:13:10;;;;;;;9.32;7.80;;;22.60;65.30;;;;;;4940409;29;20205;-83
2021/06/29 02:15:36;;;;;;;8.52;7.53;;;22.60;65.40;;;;;;4939141;29;20542;-83
2021/06/29 02:18:03;;;;;;;8.98;7.30;;;22.60;65.30;;;;;;4954981;29;20633;-83
2021/06/29 02:20:29;;;;;;;9.25;7.60;;;22.60;65.30;;;;;;4954911;29;20169;-83
2021/06/29 02:22:55;;;;;;;9.00;7.45;;;22.60;65.30;;;;;;4954903;29;20162;-83
2021/06/29 02:25:21;;;;;;;9.07;7.68;;;22.60;65.30;;;;;;4939712;29;20209;-83
2021/06/29 02:27:47;;;;;;;9.43;7.30;;;22.70;65.40;;;;;;4954420;29;20253;-83
2021/06/29 02:30:13;;;;;;;9.32;7.88;;;22.60;65.30;;;;;;4938420;29;20239;-83
2021/06/29 02:32:39;;;;;;;9.05;7.97;;;22.60;65.40;;;;;;4939181;29;20202;-83
2021/06/29 02:35:06;;;;;;;9.30;7.38;;;22.60;65.40;;;;;;4954517;29;20511;-83
2021/06/29 02:37:31;;;;;;;9.52;7.70;;;22.60;65.40;;;;;;4937631;29;20170;-83
2021/06/29 02:39:57;;;;;;;8.77;7.47;;;22.60;65.50;;;;;;4938586;29;20174;-83
2021/06/29 02:42:23;;;;;;;9.63;7.75;;;22.60;65.50;;;;;;4938033;29;20174;-83
2021/06/29 02:44:49;;;;;;;9.50;7.95;;;22.60;65.50;;;;;;4954037;29;20237;-83
2021/06/29 02:47:19;;;;;;;9.50;7.82;;;22.60;65.60;;;;;;4939440;29;20540;-83
2021/06/29 02:49:45;;;;;;;9.70;7.78;;;22.60;65.50;;;;;;4890246;29;20189;-83
2021/06/29 02:52:11;;;;;;;9.27;7.70;;;22.50;65.40;;;;;;4939529;29;20161;-83
2021/06/29 02:54:41;;;;;;;8.32;7.28;;;22.60;65.40;;;;;;4938780;29;20177;-82
2021/06/29 02:57:07;;;;;;;8.70;7.47;;;22.60;65.60;;;;;;4921150;29;20186;-82
2021/06/29 02:59:33;;;;;;;8.80;7.32;;;22.60;65.40;;;;;;4953601;29;20161;-83
2021/06/29 03:01:59;;;;;;;9.02;7.68;;;22.60;65.60;;;;;;4953489;29;20249;-83
2021/06/29 03:04:25;;;;;;;8.98;7.60;;;22.60;65.60;;;;;;4937942;29;20166;-83
2021/06/29 03:06:51;;;;;;;9.25;7.80;;;22.60;65.60;;;;;;4938789;29;20163;-82
2021/06/29 03:09:17;;;;;;;8.77;6.72;;;22.60;65.60;;;;;;4938512;29;20191;-83
2021/06/29 03:11:43;;;;;;;8.73;7.13;;;22.60;65.50;;;;;;4937368;29;20170;-83
2021/06/29 03:14:13;;;;;;;8.73;7.30;;;22.60;65.40;;;;;;4937672;29;20201;-82
2021/06/29 03:16:42;;;;;;;9.48;7.57;;;22.60;65.40;;;;;;4905471;29;20257;-83
2021/06/29 03:19:13;;;;;;;9.50;8.02;;;22.60;65.40;;;;;;4920801;29;20665;-83
2021/06/29 03:21:39;;;;;;;9.27;7.47;;;22.60;65.40;;;;;;4905341;29;20208;-82
2021/06/29 03:24:06;;;;;;;8.77;7.25;;;22.60;65.50;;;;;;4937874;29;20529;-83
2021/06/29 03:26:32;;;;;;;8.55;7.03;;;22.60;65.40;;;;;;4938419;29;20634;-82
2021/06/29 03:28:59;;;;;;;8.73;7.10;;;22.60;65.40;;;;;;4952973;29;20174;-82
2021/06/29 03:31:25;;;;;;;9.00;7.53;;;22.60;65.40;;;;;;4952834;29;20689;-83
2021/06/29 03:33:50;;;;;;;10.05;7.57;;;22.60;65.40;;;;;;4936819;29;20204;-82
2021/06/29 03:36:16;;;;;;;9.88;7.57;;;22.60;65.30;;;;;;4937358;29;20170;-83
2021/06/29 03:38:48;;;;;;;8.38;6.85;;;22.60;65.30;;;;;;4953886;29;20165;-83
2021/06/29 03:41:14;;;;;;;8.77;7.22;;;22.60;65.30;;;;;;4954568;29;20158;-83
2021/06/29 03:43:40;;;;;;;8.77;7.07;;;22.60;65.20;;;;;;4953872;29;20181;-83
2021/06/29 03:46:10;;;;;;;9.18;7.45;;;22.60;65.20;;;;;;4938802;29;20640;-83
2021/06/29 03:48:36;;;;;;;10.05;7.93;;;22.60;65.20;;;;;;4920446;29;20194;-83
2021/06/29 03:51:02;;;;;;;8.93;7.40;;;22.70;65.20;;;;;;4937005;29;20197;-83
2021/06/29 03:53:28;;;;;;;9.68;7.65;;;22.70;65.20;;;;;;4952838;29;20186;-83
2021/06/29 03:55:54;;;;;;;10.07;8.10;;;22.70;65.20;;;;;;4952788;29;20157;-82
2021/06/29 03:58:20;;;;;;;9.45;7.60;;;22.70;65.20;;;;;;4937710;29;20186;-82
2021/06/29 04:00:46;;;;;;;9.45;7.68;;;22.70;65.10;;;;;;4936263;29;20202;-83
2021/06/29 04:03:12;;;;;;;9.32;7.43;;;22.70;65.00;;;;;;4937685;29;20221;-83
2021/06/29 04:05:38;;;;;;;8.40;7.07;;;22.70;64.90;;;;;;4937690;29;20158;-83
2021/06/29 04:08:04;;;;;;;10.43;8.48;;;22.80;64.90;;;;;;4937318;29;20618;-82
2021/06/29 04:10:31;;;;;;;9.50;7.75;;;22.70;64.90;;;;;;4952411;29;20154;-82
2021/06/29 04:12:57;;;;;;;9.70;8.15;;;22.80;64.90;;;;;;4937553;29;20587;-82
2021/06/29 04:15:23;;;;;;;8.77;7.53;;;22.70;64.90;;;;;;4952428;29;20155;-82
2021/06/29 04:17:49;;;;;;;9.10;7.82;;;22.80;64.50;;;;;;4937447;29;20165;-82
2021/06/29 04:20:19;;;;;;;9.57;7.88;;;22.90;64.50;;;;;;4951789;29;20237;-82
2021/06/29 04:22:45;;;;;;;8.82;7.60;;;22.80;64.30;;;;;;4919629;29;20194;-82
2021/06/29 04:25:11;;;;;;;8.73;7.22;;;22.80;64.30;;;;;;4935530;29;20165;-82
2021/06/29 04:27:37;;;;;;;9.40;7.43;;;22.90;64.20;;;;;;4952054;29;20166;-82
2021/06/29 04:30:07;;;;;;;7.95;7.15;;;23.00;64.00;;;;;;4936489;29;20232;-82
2021/06/29 04:32:36;;;;;;;8.77;7.30;;;23.00;63.70;;;;;;4935846;29;20545;-82
2021/06/29 04:35:03;;;;;;;7.75;6.72;;;23.10;63.70;;;;;;4887799;29;20177;-82
2021/06/29 04:37:34;;;;;;;8.65;7.30;;;23.20;63.20;;;;;;4935512;29;20202;-82
2021/06/29 04:40:00;;;;;;;8.18;7.32;;;23.20;63.20;;;;;;4918994;29;20277;-82
2021/06/29 04:42:26;;;;;;;8.10;7.30;;;23.20;63.40;;;;;;4936874;29;20174;-82
2021/06/29 04:44:56;;;;;;;8.82;7.43;;;23.10;63.30;;;;;;4951241;29;20573;-82
2021/06/29 04:47:27;;;;;;;8.95;7.50;;;23.10;63.20;;;;;;4903721;29;20186;-82
2021/06/29 04:49:57;;;;;;;8.80;7.38;;;23.20;63.20;;;;;;4919199;29;20276;-82
2021/06/29 04:52:27;;;;;;;8.30;7.00;;;23.10;63.20;;;;;;4919281;29;20579;-82
2021/06/29 04:54:53;;;;;;;8.65;7.38;;;23.10;63.20;;;;;;4918829;29;20543;-82
2021/06/29 04:57:23;;;;;;;9.63;7.65;;;23.10;63.10;;;;;;4951443;29;20158;-82
2021/06/29 04:59:53;;;;;;;8.00;6.80;;;23.10;63.20;;;;;;4920390;29;20626;-82
2021/06/29 05:02:25;;;;;;;9.02;7.32;;;23.10;63.20;;;;;;4922748;29;20193;-82
2021/06/29 05:04:51;;;;;;;9.10;7.10;;;23.10;63.20;;;;;;4922807;29;20642;-82
2021/06/29 05:07:16;;;;;;;8.75;7.10;;;23.20;63.30;;;;;;4959046;29;20176;-81
2021/06/29 05:09:42;;;;;;;8.00;7.10;;;23.20;63.10;;;;;;4942613;29;20174;-81
2021/06/29 05:12:09;;;;;;;8.75;7.30;;;23.20;62.60;;;;;;4960757;29;20509;-81
2021/06/29 05:14:35;;;;;;;8.40;6.80;;;23.30;62.70;;;;;;4944882;29;20163;-81
2021/06/29 05:17:01;;;;;;;8.23;7.10;;;23.20;62.70;;;;;;4944026;29;20626;-81
2021/06/29 05:19:30;;;;;;;8.98;7.20;;;23.20;62.60;;;;;;4942600;29;20213;-81
2021/06/29 05:21:56;;;;;;;8.25;6.82;;;23.30;62.60;;;;;;4923211;29;20190;-82
2021/06/29 05:24:22;;;;;;;8.20;7.05;;;23.20;62.60;;;;;;4939458;29;20200;-83
2021/06/29 05:26:50;;;;;;;7.97;7.05;;;23.20;62.60;;;;;;4939143;29;20652;-83
2021/06/29 05:29:16;;;;;;;8.10;7.03;;;23.30;62.70;;;;;;4939661;29;20169;-83
2021/06/29 05:31:44;;;;;;;8.32;6.90;;;23.30;62.50;;;;;;4913878;29;20589;-83
2021/06/29 05:34:10;;;;;;;9.20;7.47;;;23.20;62.80;;;;;;4938597;29;20268;-83
2021/06/29 05:36:36;;;;;;;8.35;6.90;;;23.20;62.80;;;;;;4938470;29;20167;-82
2021/06/29 05:39:03;;;;;;;7.97;6.78;;;23.20;62.60;;;;;;4938383;29;20154;-82
2021/06/29 05:41:29;;;;;;;9.40;7.40;;;23.30;62.50;;;;;;4938391;29;20622;-82
2021/06/29 05:43:55;;;;;;;8.38;7.00;;;23.30;62.40;;;;;;4938278;29;20178;-84
2021/06/29 05:46:21;;;;;;;7.88;6.75;;;23.30;62.30;;;;;;4938719;29;20166;-83
2021/06/29 05:48:48;;;;;;;8.32;7.20;;;23.30;62.30;;;;;;4938184;29;20175;-84
2021/06/29 05:51:14;;;;;;;8.93;7.38;;;23.30;62.30;;;;;;4939662;29;20161;-83
2021/06/29 05:53:40;;;;;;;7.22;6.35;;;23.30;62.30;;;;;;4939473;29;20189;-83
2021/06/29 05:56:07;;;;;;;8.45;6.55;;;23.30;62.50;;;;;;4938935;29;20158;-83
2021/06/29 05:58:33;;;;;;;8.40;6.95;;;23.20;62.60;;;;;;4937870;29;20181;-83
2021/06/29 06:00:58;;;;;;;8.23;7.30;;;23.20;62.60;;;;;;4939416;29;20158;-83
2021/06/29 06:03:24;;;;;;;9.50;7.30;;;23.20;62.80;;;;;;4937670;29;20170;-84
2021/06/29 06:05:51;;;;;;;7.55;6.53;;;23.20;62.60;;;;;;4922458;29;20640;-83
2021/06/29 06:08:16;;;;;;;8.20;6.68;;;23.20;62.70;;;;;;4937747;29;20502;-83
2021/06/29 06:10:42;;;;;;;8.15;6.88;;;23.20;62.90;;;;;;4938496;29;20213;-83
2021/06/29 06:13:09;;;;;;;8.13;7.03;;;23.10;62.80;;;;;;4921268;29;20194;-83
2021/06/29 06:15:34;;;;;;;8.75;6.90;;;23.20;63.00;;;;;;4937340;29;20162;-83
2021/06/29 06:18:08;;;;;;;7.47;6.28;;;23.10;63.00;;;;;;4937206;29;20150;-83
2021/06/29 06:20:37;;;;;;;8.23;6.68;;;23.10;62.90;;;;;;4920052;29;20220;-83
2021/06/29 06:23:04;;;;;;;7.30;6.40;;;23.20;62.70;;;;;;4874198;29;20684;-83
2021/06/29 06:25:30;;;;;;;8.52;7.07;;;23.20;62.90;;;;;;4889374;29;20199;-83
2021/06/29 06:27:56;;;;;;;7.57;6.68;;;23.20;62.90;;;;;;4921017;29;20177;-82
2021/06/29 06:30:23;;;;;;;9.20;7.28;;;23.20;62.60;;;;;;4941445;29;20682;-81
2021/06/29 06:32:48;;;;;;;7.60;6.60;;;23.30;62.70;;;;;;4937070;29;20186;-82
2021/06/29 06:35:15;;;;;;;8.20;6.88;;;23.30;62.60;;;;;;4937131;29;20165;-82
2021/06/29 06:37:41;;;;;;;7.97;6.65;;;23.30;62.30;;;;;;4936824;29;20166;-82
2021/06/29 06:40:11;;;;;;;7.88;7.05;;;23.20;62.60;;;;;;4938038;29;20497;-82
2021/06/29 06:42:37;;;;;;;7.95;6.43;;;23.20;62.60;;;;;;4889140;29;20190;-82
2021/06/29 06:45:05;;;;;;;7.97;6.13;;;23.20;62.60;;;;;;4920780;29;20238;-82
2021/06/29 06:47:34;;;;;;;8.75;7.15;;;23.20;62.60;;;;;;4936674;29;20165;-83
2021/06/29 06:50:00;;;;;;;8.35;6.78;;;23.20;62.60;;;;;;4905824;29;20182;-84
2021/06/29 06:52:26;;;;;;;8.02;6.63;;;23.20;62.60;;;;;;4922174;29;20253;-83
2021/06/29 06:54:52;;;;;;;8.10;6.82;;;23.30;62.20;;;;;;4937420;29;20222;-85
2021/06/29 06:57:17;;;;;;;7.35;6.35;;;23.40;62.00;;;;;;4953598;29;20264;-87
2021/06/29 06:59:43;;;;;;;8.18;6.70;;;23.30;62.10;;;;;;4938688;29;20159;-85
2021/06/29 07:02:10;;;;;;;7.65;6.65;;;23.20;62.20;;;;;;4941086;29;20162;-85
2021/06/29 07:04:35;;;;;;;7.22;5.95;;;23.20;62.40;;;;;;4922543;29;20162;-84
2021/06/29 07:07:02;;;;;;;8.32;6.57;;;23.30;61.60;;;;;;4936905;29;20603;-84
2021/06/29 07:09:27;;;;;;;8.20;6.68;;;23.40;61.90;;;;;;4921949;29;20533;-85
2021/06/29 07:11:53;;;;;;;7.65;6.45;;;23.40;61.60;;;;;;4921424;29;20249;-85
2021/06/29 07:14:19;;;;;;;8.70;6.65;;;23.40;61.70;;;;;;4936436;29;20189;-85
2021/06/29 07:16:44;;;;;;;7.47;6.30;;;23.40;61.50;;;;;;4952358;29;20166;-84
2021/06/29 07:19:12;;;;;;;8.30;6.72;;;23.30;62.00;;;;;;4937540;29;20162;-85
2021/06/29 07:21:37;;;;;;;7.82;6.68;;;23.40;61.70;;;;;;4936444;29;20158;-86
2021/06/29 07:24:04;;;;;;;8.02;6.72;;;23.40;61.80;;;;;;4935586;29;20165;-85
2021/06/29 07:26:29;;;;;;;7.68;6.40;;;23.30;61.50;;;;;;4920552;29;20174;-84
2021/06/29 07:28:55;;;;;;;8.10;6.50;;;23.30;62.70;;;;;;4936302;29;20632;-85
2021/06/29 07:31:21;;;;;;;7.53;6.45;;;23.40;61.20;;;;;;4936053;29;20230;-86
2021/06/29 07:33:47;;;;;;;7.95;6.65;;;23.40;61.00;;;;;;4920022;29;20685;-85
2021/06/29 07:36:15;;;;;;;7.30;6.25;;;23.50;60.90;;;;;;4920024;29;20660;-85
2021/06/29 07:38:42;;;;;;;7.18;6.00;;;23.50;61.00;;;;;;4919917;29;20171;-86
2021/06/29 07:41:09;;;;;;;8.57;6.28;;;23.50;61.20;;;;;;4935829;29;20199;-85
2021/06/29 07:43:39;;;;;;;8.65;6.60;;;23.40;61.50;;;;;;4936290;29;20225;-85
2021/06/29 07:46:08;;;;;;;7.78;6.60;;;23.40;61.40;;;;;;4888339;29;20186;-87
2021/06/29 07:48:38;;;;;;;7.57;6.68;;;23.40;61.80;;;;;;4919302;29;20194;-86
2021/06/29 07:51:06;;;;;;;7.90;6.88;;;23.30;62.10;;;;;;4935189;29;20491;-87
2021/06/29 07:53:33;;;;;;;7.45;6.35;;;23.30;62.00;;;;;;4920684;29;20209;-87
2021/06/29 07:56:02;;;;;;;8.35;6.82;;;23.40;61.20;;;;;;4935927;29;20155;-86
2021/06/29 07:58:28;;;;;;;6.85;6.15;;;23.50;61.50;;;;;;4919070;29;20642;-87
2021/06/29 08:00:54;;;;;;;9.30;5.97;;;23.40;61.30;;;;;;4935725;29;20163;-86
2021/06/29 08:03:20;;;;;;;7.55;5.97;;;23.40;61.70;;;;;;4935576;29;20174;-87
2021/06/29 08:05:46;;;;;;;7.05;6.05;;;23.30;62.00;;;;;;4936174;29;20162;-86
2021/06/29 08:08:11;;;;;;;8.02;6.50;;;23.30;61.70;;;;;;4920472;29;20193;-86
2021/06/29 08:10:38;;;;;;;7.00;6.05;;;23.40;61.40;;;;;;4937227;29;20169;-87
2021/06/29 08:13:06;;;;;;;7.50;6.60;;;23.40;61.20;;;;;;4935979;29;20284;-86
2021/06/29 08:15:33;;;;;;;9.05;6.93;;;23.40;61.50;;;;;;4935804;29;20151;-87
2021/06/29 08:17:58;;;;;;;7.32;5.97;;;23.50;61.60;;;;;;4920834;29;20221;-87
2021/06/29 08:20:25;;;;;;;7.30;6.53;;;23.50;61.40;;;;;;4936705;29;20162;-87
2021/06/29 08:22:53;;;;;;;7.40;6.25;;;23.40;61.40;;;;;;4920929;29;20174;-87
2021/06/29 08:25:24;;;;;;;8.55;6.50;;;23.40;61.80;;;;;;4936805;29;20154;-87
2021/06/29 08:27:50;;;;;;;8.13;6.50;;;23.40;61.80;;;;;;4888068;29;20213;-86
2021/06/29 08:30:17;;;;;;;6.72;6.03;;;23.40;61.40;;;;;;4922101;29;20590;-82
2021/06/29 08:32:42;;;;;;;7.28;6.53;;;23.40;61.50;;;;;;4937328;29;20182;-83
2021/06/29 08:35:09;;;;;;;7.20;6.13;;;23.50;61.60;;;;;;4937559;29;20168;-83
2021/06/29 08:37:36;;;;;;;7.35;6.40;;;23.40;61.60;;;;;;4940000;29;20234;-83
2021/06/29 08:40:03;;;;;;;8.73;6.30;;;23.40;61.80;;;;;;4923080;29;20273;-82
2021/06/29 08:42:33;;;;;;;7.35;6.57;;;23.40;61.70;;;;;;4938595;29;20518;-83
2021/06/29 08:45:05;;;;;;;6.97;6.15;;;23.40;61.80;;;;;;4940413;29;20173;-83
2021/06/29 08:47:33;;;;;;;7.55;6.22;;;23.40;62.00;;;;;;4891741;29;20197;-83
2021/06/29 08:49:59;;;;;;;7.50;5.88;;;23.40;62.00;;;;;;4922476;29;20574;-81
2021/06/29 08:52:25;;;;;;;8.40;6.55;;;23.40;62.10;;;;;;4938392;29;20162;-84
2021/06/29 08:54:53;;;;;;;8.25;6.35;;;23.40;61.80;;;;;;4918574;29;20166;-83
2021/06/29 08:57:21;;;;;;;7.20;6.03;;;23.50;61.80;;;;;;4901698;29;20186;-83
2021/06/29 08:59:48;;;;;;;9.05;6.43;;;23.40;62.00;;;;;;4885834;29;20650;-84
2021/06/29 09:02:17;;;;;;;7.63;6.20;;;23.40;61.90;;;;;;4901093;29;20182;-84
2021/06/29 09:04:49;;;;;;;8.23;6.43;;;23.40;61.60;;;;;;4901855;29;20281;-82
2021/06/29 09:07:18;;;;;;;7.00;5.75;;;23.50;61.40;;;;;;4886047;29;20672;-84
2021/06/29 09:09:53;;;;;;;6.95;5.82;;;23.50;61.60;;;;;;4889144;29;20190;-84
2021/06/29 09:12:47;;;;;;;7.53;6.28;;;23.40;61.70;;;;;;4893356;29;20204;-84
2021/06/29 09:15:35;;;;;;;7.40;6.13;;;23.40;61.70;;;;;;4910933;29;20245;-82
2021/06/29 09:18:14;;;;;;;6.93;5.90;;;23.50;62.20;;;;;;4929550;29;20230;-83
2021/06/29 09:20:51;;;;;;;6.82;6.00;;;23.60;61.60;;;;;;4929449;29;20182;-86
2021/06/29 09:23:25;;;;;;;8.45;6.05;;;23.60;61.40;;;;;;4883272;29;20190;-83
2021/06/29 09:26:02;;;;;;;8.23;6.18;;;23.60;61.30;;;;;;4911451;29;20185;-83
2021/06/29 09:28:34;;;;;;;7.20;6.38;;;23.50;61.20;;;;;;4911861;29;20648;-84
2021/06/29 09:31:07;;;;;;;6.45;5.72;;;23.50;61.10;;;;;;4897468;29;20240;-83
2021/06/29 09:33:35;;;;;;;9.35;6.70;;;23.50;61.50;;;;;;4911198;29;20244;-84
2021/06/29 09:36:07;;;;;;;8.07;6.47;;;23.50;61.60;;;;;;4894796;29;20190;-82
2021/06/29 09:38:41;;;;;;;8.32;6.35;;;23.40;61.60;;;;;;4881673;29;20211;-82
2021/06/29 09:41:17;;;;;;;7.28;6.25;;;23.50;61.40;;;;;;4893165;29;20723;-84
2021/06/29 09:43:45;;;;;;;8.10;5.90;;;23.40;61.60;;;;;;4908949;29;20186;-83
2021/06/29 09:46:15;;;;;;;6.85;6.10;;;23.50;61.30;;;;;;4940054;29;20169;-83
2021/06/29 09:48:45;;;;;;;6.82;5.95;;;23.50;60.90;;;;;;4922950;29;20169;-85
2021/06/29 09:51:22;;;;;;;7.20;6.30;;;23.50;61.10;;;;;;4923117;29;20256;-83
2021/06/29 09:53:53;;;;;;;8.32;6.40;;;23.50;61.40;;;;;;4907648;29;20228;-88
2021/06/29 09:56:23;;;;;;;6.90;6.15;;;23.40;61.60;;;;;;4891668;29;20190;-85
2021/06/29 09:58:53;;;;;;;6.75;5.80;;;23.50;61.40;;;;;;4937481;29;20223;-84
2021/06/29 10:01:22;;;;;;;7.45;6.43;;;23.50;61.40;;;;;;4937454;29;20158;-84
2021/06/29 10:03:51;;;;;;;7.50;6.25;;;23.60;61.30;;;;;;4922129;29;20177;-83
2021/06/29 10:06:31;;;;;;;7.88;6.20;;;23.40;61.70;;;;;;4922946;29;20166;-83
2021/06/29 10:09:13;;;;;;;7.22;6.10;;;23.60;61.30;;;;;;4940144;29;20177;-85
2021/06/29 10:11:42;;;;;;;7.38;6.20;;;23.50;61.60;;;;;;4938720;29;20166;-83
2021/06/29 10:14:11;;;;;;;6.40;5.75;;;23.50;61.30;;;;;;4940484;29;20194;-85
2021/06/29 10:16:42;;;;;;;8.60;5.97;;;23.50;61.40;;;;;;4924573;29;20679;-85
2021/06/29 10:19:16;;;;;;;6.97;5.97;;;23.60;61.40;;;;;;4924584;29;20257;-86
2021/06/29 10:21:46;;;;;;;6.80;5.78;;;23.60;61.40;;;;;;4880518;29;20262;-85
2021/06/29 10:24:18;;;;;;;7.68;6.47;;;23.70;61.00;;;;;;4943773;29;20697;-84
2021/06/29 10:26:44;;;;;;;7.13;5.90;;;23.70;60.90;;;;;;4909293;29;20197;-82
2021/06/29 10:29:11;;;;;;;7.43;6.05;;;23.60;61.40;;;;;;4940665;29;20188;-82
2021/06/29 10:31:41;;;;;;;6.57;5.90;;;23.60;61.20;;;;;;4922679;29;20233;-83
2021/06/29 10:34:09;;;;;;;7.90;5.85;;;23.60;61.40;;;;;;4938838;29;20205;-81
2021/06/29 10:36:41;;;;;;;7.03;6.00;;;23.60;61.20;;;;;;4937876;29;20214;-82
2021/06/29 10:39:08;;;;;;;7.50;5.88;;;23.60;61.20;;;;;;4905017;29;20220;-81
2021/06/29 10:41:43;;;;;;;7.30;6.35;;;23.60;61.30;;;;;;4938856;29;20158;-85
2021/06/29 10:44:11;;;;;;;7.85;6.20;;;23.60;61.10;;;;;;4938534;29;20253;-82
2021/06/29 10:46:40;;;;;;;7.75;5.70;;;23.50;61.40;;;;;;4937204;29;20634;-84
2021/06/29 10:49:25;;;;;;;7.43;5.90;;;23.50;61.30;;;;;;4938728;29;20569;-83
2021/06/29 10:51:51;;;;;;;7.00;6.00;;;23.50;61.70;;;;;;4921242;29;20185;-81
2021/06/29 10:54:38;;;;;;;7.18;5.75;;;23.50;61.60;;;;;;4937271;29;20519;-81
2021/06/29 10:57:07;;;;;;;7.18;6.05;;;23.50;61.20;;;;;;4936531;29;20186;-83
2021/06/29 10:59:34;;;;;;;8.20;6.55;;;23.50;61.30;;;;;;4937475;29;20173;-80
2021/06/29 11:02:01;;;;;;;7.30;6.07;;;23.60;61.60;;;;;;4940393;29;20158;-81
2021/06/29 11:04:49;;;;;;;8.02;6.55;;;23.50;61.20;;;;;;4940577;29;20166;-82
2021/06/29 11:07:38;;;;;;;6.90;5.97;;;23.60;61.60;;;;;;4943150;29;20652;-82
2021/06/29 11:10:07;;;;;;;8.82;6.35;;;23.50;61.40;;;;;;4962410;28;20241;-81
2021/06/29 11:12:53;;;;;;;7.82;6.13;;;23.50;61.40;;;;;;4943675;29;20198;-83
2021/06/29 11:15:38;;;;;;;7.53;6.13;;;23.60;61.20;;;;;;4932137;29;20174;-81
2021/06/29 11:18:08;;;;;;;6.43;5.70;;;23.70;60.50;;;;;;4935861;29;20170;-81
2021/06/29 11:20:43;;;;;;;7.60;5.80;;;23.80;60.60;;;;;;4895317;29;20189;-83
2021/06/29 11:23:16;;;;;;;9.57;5.95;;;23.70;60.70;;;;;;4940225;29;20179;-81
2021/06/29 11:25:55;;;;;;;7.63;6.30;;;23.80;59.90;;;;;;4939644;29;20186;-81
2021/06/29 11:28:29;;;;;;;7.55;5.75;;;23.70;60.20;;;;;;4938913;29;20580;-80
2021/06/29 11:31:00;;;;;;;8.02;6.38;;;23.70;59.90;;;;;;4889651;29;20237;-81
2021/06/29 11:33:46;;;;;;;7.00;5.97;;;23.80;60.20;;;;;;4937570;29;20217;-82
2021/06/29 11:36:47;;;;;;;8.68;6.10;;;23.80;59.70;;;;;;4924138;29;20162;-83
2021/06/29 11:39:33;;;;;;;7.90;6.03;;;23.90;59.80;;;;;;4935081;29;20256;-81
2021/06/29 11:42:22;;;;;;;7.13;5.63;;;23.90;59.80;;;;;;4946729;29;20192;-81
2021/06/29 11:44:50;;;;;;;7.32;5.80;;;23.90;59.90;;;;;;4946523;29;20226;-85
2021/06/29 11:47:18;;;;;;;8.05;5.78;;;23.90;59.90;;;;;;4943299;29;20205;-82
2021/06/29 11:49:49;;;;;;;8.13;6.68;;;23.90;60.00;;;;;;4942147;29;20165;-82
2021/06/29 11:52:25;;;;;;;6.88;5.97;;;23.90;60.10;;;;;;4928857;29;20166;-82
2021/06/29 11:55:07;;;;;;;6.80;5.72;;;23.90;60.10;;;;;;4897765;29;20665;-82
2021/06/29 11:57:46;;;;;;;6.80;5.88;;;23.80;60.00;;;;;;4925473;29;20625;-84
2021/06/29 12:00:27;;;;;;;7.35;5.95;;;23.90;60.00;;;;;;4908560;29;20309;-83
2021/06/29 12:02:56;;;;;;;6.53;5.63;;;23.90;60.10;;;;;;4926353;29;20181;-84
2021/06/29 12:05:27;;;;;;;7.05;5.65;;;23.80;60.00;;;;;;4948234;29;20158;-81
2021/06/29 12:07:55;;;;;;;7.50;5.95;;;23.80;60.00;;;;;;4928548;29;20170;-81
2021/06/29 12:10:32;;;;;;;6.68;5.97;;;23.90;60.00;;;;;;4945031;29;20263;-86
2021/06/29 12:13:05;;;;;;;8.10;6.07;;;24.00;59.90;;;;;;4899146;29;20225;-81
2021/06/29 12:15:37;;;;;;;6.72;5.90;;;23.90;59.90;;;;;;4929914;29;20186;-81
2021/06/29 12:18:14;;;;;;;6.53;5.70;;;24.00;59.90;;;;;;4895374;29;20291;-84
2021/06/29 12:20:43;;;;;;;7.60;6.30;;;24.00;60.00;;;;;;4890687;29;20777;-86
2021/06/29 12:23:12;;;;;;;6.47;5.80;;;23.80;60.10;;;;;;4924260;29;20186;-86
2021/06/29 12:25:42;;;;;;;6.50;5.60;;;23.80;60.30;;;;;;4938973;29;20692;-82
2021/06/29 12:28:09;;;;;;;7.28;6.05;;;23.80;60.20;;;;;;4924915;29;20564;-83
2021/06/29 12:30:45;;;;;;;8.18;5.97;;;23.80;60.50;;;;;;4942412;29;20333;-84
2021/06/29 12:33:16;;;;;;;7.65;6.07;;;23.70;60.50;;;;;;4945731;29;20232;-82
2021/06/29 12:35:42;;;;;;;6.63;5.65;;;23.80;60.70;;;;;;4944930;29;20159;-81
2021/06/29 12:38:15;;;;;;;6.70;6.00;;;23.70;60.30;;;;;;4944422;29;20185;-81
2021/06/29 12:40:47;;;;;;;6.70;5.97;;;23.80;60.60;;;;;;4910587;29;20228;-82
2021/06/29 12:43:18;;;;;;;7.10;5.85;;;23.70;60.60;;;;;;4899016;29;20189;-82
2021/06/29 12:45:46;;;;;;;7.93;6.45;;;23.70;60.90;;;;;;4945165;29;20169;-83
2021/06/29 12:48:17;;;;;;;7.00;5.65;;;23.70;60.90;;;;;;4928837;29;20253;-81
2021/06/29 12:50:59;;;;;;;7.38;6.03;;;23.70;61.00;;;;;;4926318;29;20200;-82
2021/06/29 12:53:25;;;;;;;6.60;5.90;;;23.70;60.90;;;;;;4895578;29;20218;-80
2021/06/29 12:56:08;;;;;;;6.90;5.80;;;23.80;60.80;;;;;;4944122;29;20182;-82
2021/06/29 12:58:38;;;;;;;7.53;6.32;;;23.80;60.50;;;;;;4896636;29;20249;-83
2021/06/29 13:01:08;;;;;;;6.53;5.60;;;23.80;60.50;;;;;;4898143;29;20193;-83
2021/06/29 13:03:38;;;;;;;7.03;5.75;;;23.90;60.60;;;;;;4898206;29;20683;-83
2021/06/29 13:06:13;;;;;;;7.47;6.10;;;23.80;60.60;;;;;;4947081;29;20155;-83
2021/06/29 13:08:39;;;;;;;6.88;5.80;;;23.80;60.80;;;;;;4881064;29;20185;-85
2021/06/29 13:11:12;;;;;;;6.70;5.80;;;23.80;60.70;;;;;;4924220;29;20174;-85
2021/06/29 13:13:39;;;;;;;8.32;5.93;;;23.80;60.70;;;;;;4936506;29;20208;-82
2021/06/29 13:16:17;;;;;;;6.68;5.80;;;23.80;60.70;;;;;;4934357;29;20162;-83
2021/06/29 13:18:43;;;;;;;6.82;5.70;;;23.70;60.80;;;;;;4919056;29;20610;-85
2021/06/29 13:21:22;;;;;;;8.98;5.43;;;23.70;60.70;;;;;;4923427;29;20222;-82
2021/06/29 13:23:59;;;;;;;7.30;5.70;;;23.80;60.50;;;;;;4877543;29;20276;-82